Addison, Texas
Current Conditions -  °F | °C
As of 7:49 AM on Tuesday 21 Oct 2014 (Local Time) from KADS Reporting Station
Few Clouds Few Clouds  
Wind Chill: 63°   Ceiling: Unl
Heat Index: 63°   Visibility: 13mi
Dew Point: 57°   Wind: 0mph
Humidity: 82%   Direction: NA
Pressure: 30.09"   Gusts: NA
Location:  32.95°N, 96.82°W
Report Text: KADS 211249Z 00000KT 13SM FEW250 17/14 A3009
Loading
Personal Weather Stations






























Interactive Weather Map
Tropical Storm Tracking
New forecast layout! Learn more

10-Day Weather Forecast

Advertisements
Track Severe Weather on mobile